sensor_id;sensor_type;location;lat;lon;timestamp;pressure;altitude;pressure_sealevel;temperature
66604;BMP280;53460;39.612;8.822;2022-07-06T00:01:49;99530.19;;;25.91
66604;BMP280;53460;39.612;8.822;2022-07-06T00:04:17;99535.06;;;25.87
66604;BMP280;53460;39.612;8.822;2022-07-06T00:06:43;99535.00;;;25.89
66604;BMP280;53460;39.612;8.822;2022-07-06T00:09:09;99532.09;;;25.97
66604;BMP280;53460;39.612;8.822;2022-07-06T00:11:35;99514.25;;;26.00
66604;BMP280;53460;39.612;8.822;2022-07-06T00:14:00;99494.34;;;26.04
66604;BMP280;53460;39.612;8.822;2022-07-06T00:16:26;99481.97;;;26.07
66604;BMP280;53460;39.612;8.822;2022-07-06T00:18:52;99466.28;;;26.05
66604;BMP280;53460;39.612;8.822;2022-07-06T00:21:18;99455.31;;;26.07
66604;BMP280;53460;39.612;8.822;2022-07-06T00:23:44;99455.88;;;26.12
66604;BMP280;53460;39.612;8.822;2022-07-06T00:26:10;99459.16;;;26.16
66604;BMP280;53460;39.612;8.822;2022-07-06T00:28:36;99466.66;;;26.18
66604;BMP280;53460;39.612;8.822;2022-07-06T00:31:02;99448.53;;;26.04
66604;BMP280;53460;39.612;8.822;2022-07-06T00:33:28;99448.38;;;26.10
66604;BMP280;53460;39.612;8.822;2022-07-06T00:35:53;99443.59;;;26.11
66604;BMP280;53460;39.612;8.822;2022-07-06T00:38:20;99453.78;;;26.14
66604;BMP280;53460;39.612;8.822;2022-07-06T00:40:46;99457.31;;;26.09
66604;BMP280;53460;39.612;8.822;2022-07-06T00:43:12;99450.53;;;26.06
66604;BMP280;53460;39.612;8.822;2022-07-06T00:45:38;99466.13;;;26.11
66604;BMP280;53460;39.612;8.822;2022-07-06T00:48:05;99464.19;;;26.08
66604;BMP280;53460;39.612;8.822;2022-07-06T00:50:32;99461.47;;;26.06
66604;BMP280;53460;39.612;8.822;2022-07-06T00:53:04;99463.53;;;26.07
66604;BMP280;53460;39.612;8.822;2022-07-06T00:55:34;99462.94;;;26.03
66604;BMP280;53460;39.612;8.822;2022-07-06T00:58:02;99463.56;;;26.05
66604;BMP280;53460;39.612;8.822;2022-07-06T01:00:29;99479.97;;;26.05
66604;BMP280;53460;39.612;8.822;2022-07-06T01:02:55;99470.56;;;25.98
66604;BMP280;53460;39.612;8.822;2022-07-06T01:05:21;99456.84;;;26.00
66604;BMP280;53460;39.612;8.822;2022-07-06T01:07:50;99463.56;;;26.05
66604;BMP280;53460;39.612;8.822;2022-07-06T01:10:17;99466.94;;;26.08
66604;BMP280;53460;39.612;8.822;2022-07-06T01:12:45;99473.72;;;26.09
66604;BMP280;53460;39.612;8.822;2022-07-06T01:15:21;99485.47;;;26.03
66604;BMP280;53460;39.612;8.822;2022-07-06T01:17:47;99488.97;;;26.00
66604;BMP280;53460;39.612;8.822;2022-07-06T01:22:45;99467.25;;;25.93
66604;BMP280;53460;39.612;8.822;2022-07-06T01:25:11;99468.09;;;25.86
66604;BMP280;53460;39.612;8.822;2022-07-06T01:27:39;99482.66;;;25.78
66604;BMP280;53460;39.612;8.822;2022-07-06T01:30:11;99493.47;;;25.82
66604;BMP280;53460;39.612;8.822;2022-07-06T01:32:37;99482.59;;;25.80
66604;BMP280;53460;39.612;8.822;2022-07-06T01:35:06;99481.09;;;25.85
66604;BMP280;53460;39.612;8.822;2022-07-06T01:37:32;99460.81;;;25.76
66604;BMP280;53460;39.612;8.822;2022-07-06T01:39:59;99464.16;;;25.79
66604;BMP280;53460;39.612;8.822;2022-07-06T01:42:26;99459.44;;;25.77
66604;BMP280;53460;39.612;8.822;2022-07-06T01:44:52;99445.94;;;25.71
66604;BMP280;53460;39.612;8.822;2022-07-06T01:47:20;99443.81;;;25.74
66604;BMP280;53460;39.612;8.822;2022-07-06T01:49:47;99460.13;;;25.78
66604;BMP280;53460;39.612;8.822;2022-07-06T01:52:13;99465.59;;;25.78
66604;BMP280;53460;39.612;8.822;2022-07-06T01:54:39;99454.66;;;25.78
66604;BMP280;53460;39.612;8.822;2022-07-06T01:57:06;99442.38;;;25.77
66604;BMP280;53460;39.612;8.822;2022-07-06T01:59:32;99428.78;;;25.73
66604;BMP280;53460;39.612;8.822;2022-07-06T02:01:57;99437.06;;;25.71
66604;BMP280;53460;39.612;8.822;2022-07-06T02:04:23;99433.66;;;25.70
66604;BMP280;53460;39.612;8.822;2022-07-06T02:06:49;99425.50;;;25.68
66604;BMP280;53460;39.612;8.822;2022-07-06T02:09:15;99416.72;;;25.64
66604;BMP280;53460;39.612;8.822;2022-07-06T02:11:42;99423.63;;;25.61
66604;BMP280;53460;39.612;8.822;2022-07-06T02:14:08;99413.41;;;25.59
66604;BMP280;53460;39.612;8.822;2022-07-06T02:16:34;99420.28;;;25.58
66604;BMP280;53460;39.612;8.822;2022-07-06T02:19:00;99417.63;;;25.54
66604;BMP280;53460;39.612;8.822;2022-07-06T02:21:27;99412.25;;;25.50
66604;BMP280;53460;39.612;8.822;2022-07-06T02:23:53;99417.03;;;25.49
66604;BMP280;53460;39.612;8.822;2022-07-06T02:26:19;99425.22;;;25.51
66604;BMP280;53460;39.612;8.822;2022-07-06T02:28:46;99412.25;;;25.50
66604;BMP280;53460;39.612;8.822;2022-07-06T02:31:13;99421.72;;;25.55
66604;BMP280;53460;39.612;8.822;2022-07-06T02:33:40;99425.09;;;25.55
66604;BMP280;53460;39.612;8.822;2022-07-06T02:36:06;99420.28;;;25.58
66604;BMP280;53460;39.612;8.822;2022-07-06T02:38:32;99419.63;;;25.55
66604;BMP280;53460;39.612;8.822;2022-07-06T02:40:58;99419.47;;;25.64
66604;BMP280;53460;39.612;8.822;2022-07-06T02:43:24;99414.69;;;25.62
66604;BMP280;53460;39.612;8.822;2022-07-06T02:45:50;99405.84;;;25.62
66604;BMP280;53460;39.612;8.822;2022-07-06T02:48:16;99399.03;;;25.61
66604;BMP280;53460;39.612;8.822;2022-07-06T02:50:43;99396.31;;;25.61
66604;BMP280;53460;39.612;8.822;2022-07-06T02:53:09;99402.34;;;25.65
66604;BMP280;53460;39.612;8.822;2022-07-06T02:55:35;99413.38;;;25.61
66604;BMP280;53460;39.612;8.822;2022-07-06T02:58:02;99413.44;;;25.57
66604;BMP280;53460;39.612;8.822;2022-07-06T03:00:29;99395.72;;;25.56
66604;BMP280;53460;39.612;8.822;2022-07-06T03:02:55;99390.38;;;25.50
66604;BMP280;53460;39.612;8.822;2022-07-06T03:05:22;99410.28;;;25.46
66604;BMP280;53460;39.612;8.822;2022-07-06T03:07:48;99402.25;;;25.40
66604;BMP280;53460;39.612;8.822;2022-07-06T03:10:14;99381.19;;;25.35
66604;BMP280;53460;39.612;8.822;2022-07-06T03:12:39;99392.72;;;25.37
66604;BMP280;53460;39.612;8.822;2022-07-06T03:15:05;99384.00;;;25.31
66604;BMP280;53460;39.612;8.822;2022-07-06T03:17:32;99383.28;;;25.32
66604;BMP280;53460;39.612;8.822;2022-07-06T03:19:58;99367.66;;;25.29
66604;BMP280;53460;39.612;8.822;2022-07-06T03:22:24;99367.03;;;25.26
66604;BMP280;53460;39.612;8.822;2022-07-06T03:24:50;99370.47;;;25.27
66604;BMP280;53460;39.612;8.822;2022-07-06T03:27:16;99365.75;;;25.23
66604;BMP280;53460;39.612;8.822;2022-07-06T03:29:41;99363.03;;;25.23
66604;BMP280;53460;39.612;8.822;2022-07-06T03:32:07;99365.16;;;25.18
66604;BMP280;53460;39.612;8.822;2022-07-06T03:34:33;99356.28;;;25.18
66604;BMP280;53460;39.612;8.822;2022-07-06T03:37:00;99348.88;;;25.14
66604;BMP280;53460;39.612;8.822;2022-07-06T03:39:25;99360.50;;;25.13
66604;BMP280;53460;39.612;8.822;2022-07-06T03:41:52;99357.81;;;25.11
66604;BMP280;53460;39.612;8.822;2022-07-06T03:44:18;99344.22;;;25.09
66604;BMP280;53460;39.612;8.822;2022-07-06T03:46:44;99336.72;;;25.07
66604;BMP280;53460;39.612;8.822;2022-07-06T03:49:11;99311.78;;;24.95
66604;BMP280;53460;39.612;8.822;2022-07-06T03:51:37;99303.50;;;24.99
66604;BMP280;53460;39.612;8.822;2022-07-06T03:54:03;99303.59;;;24.95
66604;BMP280;53460;39.612;8.822;2022-07-06T03:56:29;99311.09;;;24.96
66604;BMP280;53460;39.612;8.822;2022-07-06T03:59:09;99320.63;;;24.95
66604;BMP280;53460;39.612;8.822;2022-07-06T04:01:37;99327.41;;;24.98
66604;BMP280;53460;39.612;8.822;2022-07-06T04:04:03;99325.41;;;24.95
66604;BMP280;53460;39.612;8.822;2022-07-06T04:06:30;99318.53;;;24.98
66604;BMP280;53460;39.612;8.822;2022-07-06T04:08:56;99320.69;;;24.93
66604;BMP280;53460;39.612;8.822;2022-07-06T04:11:22;99318.53;;;24.98
66604;BMP280;53460;39.612;8.822;2022-07-06T04:13:49;99296.44;;;24.79
66604;BMP280;53460;39.612;8.822;2022-07-06T04:16:14;99288.13;;;24.83
66604;BMP280;53460;39.612;8.822;2022-07-06T04:18:41;99289.53;;;24.82
66604;BMP280;53460;39.612;8.822;2022-07-06T04:21:07;99315.31;;;24.89
66604;BMP280;53460;39.612;8.822;2022-07-06T04:23:35;99373.09;;;25.00
66604;BMP280;53460;39.612;8.822;2022-07-06T04:26:03;99409.78;;;25.07
66604;BMP280;53460;39.612;8.822;2022-07-06T04:28:31;99439.78;;;25.09
66604;BMP280;53460;39.612;8.822;2022-07-06T04:30:57;99448.88;;;24.97
66604;BMP280;53460;39.612;8.822;2022-07-06T04:33:24;99468.69;;;24.96
66604;BMP280;53460;39.612;8.822;2022-07-06T04:35:50;99469.38;;;24.94
66604;BMP280;53460;39.612;8.822;2022-07-06T04:38:17;99464.88;;;24.81
66604;BMP280;53460;39.612;8.822;2022-07-06T04:40:44;99478.66;;;25.07
66604;BMP280;53460;39.612;8.822;2022-07-06T04:43:14;99524.19;;;25.19
66604;BMP280;53460;39.612;8.822;2022-07-06T04:45:41;99534.44;;;25.18
66604;BMP280;53460;39.612;8.822;2022-07-06T04:48:07;99528.22;;;25.22
66604;BMP280;53460;39.612;8.822;2022-07-06T04:50:35;99539.13;;;25.24
66604;BMP280;53460;39.612;8.822;2022-07-06T04:53:02;99575.50;;;25.12
66604;BMP280;53460;39.612;8.822;2022-07-06T04:55:30;99610.69;;;25.29
66604;BMP280;53460;39.612;8.822;2022-07-06T04:57:57;99666.53;;;25.38
66604;BMP280;53460;39.612;8.822;2022-07-06T05:00:22;99734.81;;;25.38
66604;BMP280;53460;39.612;8.822;2022-07-06T05:02:49;99719.22;;;25.30
66604;BMP280;53460;39.612;8.822;2022-07-06T05:05:16;99654.72;;;25.10
66604;BMP280;53460;39.612;8.822;2022-07-06T05:07:42;99680.63;;;25.11
66604;BMP280;53460;39.612;8.822;2022-07-06T05:10:10;99724.16;;;25.61
66604;BMP280;53460;39.612;8.822;2022-07-06T05:12:38;99783.28;;;25.78
66604;BMP280;53460;39.612;8.822;2022-07-06T05:15:05;99829.66;;;25.82
66604;BMP280;53460;39.612;8.822;2022-07-06T05:17:31;99826.91;;;25.84
66604;BMP280;53460;39.612;8.822;2022-07-06T05:19:59;99835.50;;;25.99
66604;BMP280;53460;39.612;8.822;2022-07-06T05:22:27;99843.56;;;25.68
66604;BMP280;53460;39.612;8.822;2022-07-06T05:24:53;99693.72;;;25.81
66604;BMP280;53460;39.612;8.822;2022-07-06T05:27:19;99706.13;;;26.09
66604;BMP280;53460;39.612;8.822;2022-07-06T05:29:46;99736.03;;;26.17
66604;BMP280;53460;39.612;8.822;2022-07-06T05:32:12;99715.88;;;26.02
66604;BMP280;53460;39.612;8.822;2022-07-06T05:34:38;99718.78;;;26.24
66604;BMP280;53460;39.612;8.822;2022-07-06T05:37:06;99720.66;;;26.34
66604;BMP280;53460;39.612;8.822;2022-07-06T05:39:33;99750.22;;;26.25
66604;BMP280;53460;39.612;8.822;2022-07-06T05:41:58;99755.66;;;26.27
66604;BMP280;53460;39.612;8.822;2022-07-06T05:44:24;99794.13;;;26.52
66604;BMP280;53460;39.612;8.822;2022-07-06T05:46:50;99766.50;;;26.64
66604;BMP280;53460;39.612;8.822;2022-07-06T05:49:16;99773.91;;;26.68
66604;BMP280;53460;39.612;8.822;2022-07-06T05:52:00;99826.47;;;27.05
66604;BMP280;53460;39.612;8.822;2022-07-06T05:54:26;99871.66;;;27.35
66604;BMP280;53460;39.612;8.822;2022-07-06T05:56:53;99874.38;;;27.35
66604;BMP280;53460;39.612;8.822;2022-07-06T05:59:19;99977.06;;;27.69
66604;BMP280;53460;39.612;8.822;2022-07-06T06:01:45;100042.13;;;28.02
66604;BMP280;53460;39.612;8.822;2022-07-06T06:04:16;100029.34;;;28.19
66604;BMP280;53460;39.612;8.822;2022-07-06T06:06:41;100083.66;;;28.14
66604;BMP280;53460;39.612;8.822;2022-07-06T06:09:08;100081.91;;;28.01
66604;BMP280;53460;39.612;8.822;2022-07-06T06:11:34;100083.16;;;28.34
66604;BMP280;53460;39.612;8.822;2022-07-06T06:14:00;100098.47;;;28.54
66604;BMP280;53460;39.612;8.822;2022-07-06T06:16:26;100102.34;;;28.63
66604;BMP280;53460;39.612;8.822;2022-07-06T06:18:51;100124.16;;;28.69
66604;BMP280;53460;39.612;8.822;2022-07-06T06:21:17;100128.91;;;28.71
66604;BMP280;53460;39.612;8.822;2022-07-06T06:23:43;100109.31;;;28.60
66604;BMP280;53460;39.612;8.822;2022-07-06T06:26:09;100121.91;;;29.03
66604;BMP280;53460;39.612;8.822;2022-07-06T06:28:34;100121.94;;;29.26
66604;BMP280;53460;39.612;8.822;2022-07-06T06:31:02;100118.75;;;29.17
66604;BMP280;53460;39.612;8.822;2022-07-06T06:33:27;100120.94;;;29.37
66604;BMP280;53460;39.612;8.822;2022-07-06T06:35:53;100122.41;;;29.34
66604;BMP280;53460;39.612;8.822;2022-07-06T06:38:22;100134.03;;;29.59
66604;BMP280;53460;39.612;8.822;2022-07-06T06:40:48;100139.91;;;29.93
66604;BMP280;53460;39.612;8.822;2022-07-06T06:43:13;100139.41;;;29.86
66604;BMP280;53460;39.612;8.822;2022-07-06T06:46:02;100128.16;;;29.72
66604;BMP280;53460;39.612;8.822;2022-07-06T06:48:28;100127.72;;;29.40
66604;BMP280;53460;39.612;8.822;2022-07-06T06:50:54;100127.34;;;29.98
66604;BMP280;53460;39.612;8.822;2022-07-06T06:53:20;100136.75;;;30.26
66604;BMP280;53460;39.612;8.822;2022-07-06T06:55:45;100138.03;;;30.70
66604;BMP280;53460;39.612;8.822;2022-07-06T06:58:11;100155.28;;;30.90
66604;BMP280;53460;39.612;8.822;2022-07-06T07:00:37;100153.03;;;30.94
66604;BMP280;53460;39.612;8.822;2022-07-06T07:03:02;100157.66;;;30.60
66604;BMP280;53460;39.612;8.822;2022-07-06T07:05:28;100164.94;;;30.70
66604;BMP280;53460;39.612;8.822;2022-07-06T07:07:54;100169.88;;;31.23
66604;BMP280;53460;39.612;8.822;2022-07-06T07:10:21;100170.13;;;31.17
66604;BMP280;53460;39.612;8.822;2022-07-06T07:12:47;100171.16;;;31.26
66604;BMP280;53460;39.612;8.822;2022-07-06T07:41:23;100172.38;;;32.69
66604;BMP280;53460;39.612;8.822;2022-07-06T07:43:48;100177.31;;;32.67
66604;BMP280;53460;39.612;8.822;2022-07-06T07:46:15;100187.19;;;32.78
66604;BMP280;53460;39.612;8.822;2022-07-06T07:48:41;100189.06;;;32.98
66604;BMP280;53460;39.612;8.822;2022-07-06T07:51:08;100200.00;;;33.17
66604;BMP280;53460;39.612;8.822;2022-07-06T07:53:34;100194.59;;;33.44
66604;BMP280;53460;39.612;8.822;2022-07-06T07:56:00;100213.13;;;33.48
66604;BMP280;53460;39.612;8.822;2022-07-06T07:58:26;100218.06;;;33.89
66604;BMP280;53460;39.612;8.822;2022-07-06T08:00:52;100219.69;;;33.99
66604;BMP280;53460;39.612;8.822;2022-07-06T08:03:18;100220.94;;;33.58
66604;BMP280;53460;39.612;8.822;2022-07-06T08:05:44;100227.72;;;34.05
66604;BMP280;53460;39.612;8.822;2022-07-06T08:08:09;100235.34;;;33.75
66604;BMP280;53460;39.612;8.822;2022-07-06T08:10:35;100243.19;;;34.00
66604;BMP280;53460;39.612;8.822;2022-07-06T08:13:01;100251.19;;;34.06
66604;BMP280;53460;39.612;8.822;2022-07-06T08:15:26;100250.22;;;34.26
66604;BMP280;53460;39.612;8.822;2022-07-06T08:17:53;100262.81;;;34.23
66604;BMP280;53460;39.612;8.822;2022-07-06T08:20:18;100272.09;;;34.32
66604;BMP280;53460;39.612;8.822;2022-07-06T08:22:44;100293.78;;;34.13
66604;BMP280;53460;39.612;8.822;2022-07-06T08:25:10;100316.19;;;33.63
66604;BMP280;53460;39.612;8.822;2022-07-06T08:27:36;100341.63;;;33.82
66604;BMP280;53460;39.612;8.822;2022-07-06T08:30:04;100354.69;;;33.69
66604;BMP280;53460;39.612;8.822;2022-07-06T08:32:30;100350.34;;;33.58
66604;BMP280;53460;39.612;8.822;2022-07-06T08:34:55;100354.25;;;33.79
66604;BMP280;53460;39.612;8.822;2022-07-06T08:37:21;100349.16;;;33.84
66604;BMP280;53460;39.612;8.822;2022-07-06T08:39:47;100347.38;;;33.93
66604;BMP280;53460;39.612;8.822;2022-07-06T08:42:15;100345.19;;;34.25
66604;BMP280;53460;39.612;8.822;2022-07-06T08:44:43;100354.56;;;34.17
66604;BMP280;53460;39.612;8.822;2022-07-06T08:47:09;100365.16;;;34.13
66604;BMP280;53460;39.612;8.822;2022-07-06T08:49:40;100350.25;;;34.20
66604;BMP280;53460;39.612;8.822;2022-07-06T08:52:08;100333.06;;;34.03
66604;BMP280;53460;39.612;8.822;2022-07-06T08:54:34;100330.69;;;34.10
66604;BMP280;53460;39.612;8.822;2022-07-06T08:57:02;100348.44;;;34.29
66604;BMP280;53460;39.612;8.822;2022-07-06T08:59:28;100362.19;;;34.46
66604;BMP280;53460;39.612;8.822;2022-07-06T09:01:54;100364.50;;;34.41
66604;BMP280;53460;39.612;8.822;2022-07-06T09:04:22;100351.78;;;34.47
66604;BMP280;53460;39.612;8.822;2022-07-06T09:06:49;100348.66;;;34.25
66604;BMP280;53460;39.612;8.822;2022-07-06T09:09:20;100358.00;;;34.32
66604;BMP280;53460;39.612;8.822;2022-07-06T09:11:47;100354.72;;;34.57
66604;BMP280;53460;39.612;8.822;2022-07-06T09:14:13;100351.81;;;34.17
66604;BMP280;53460;39.612;8.822;2022-07-06T09:16:39;100348.53;;;34.42
66604;BMP280;53460;39.612;8.822;2022-07-06T09:19:06;100337.09;;;34.77
66604;BMP280;53460;39.612;8.822;2022-07-06T09:21:32;100343.06;;;34.97
66604;BMP280;53460;39.612;8.822;2022-07-06T09:24:01;100347.13;;;34.85
66604;BMP280;53460;39.612;8.822;2022-07-06T09:26:30;100344.09;;;34.62
66604;BMP280;53460;39.612;8.822;2022-07-06T09:28:57;100336.19;;;34.81
66604;BMP280;53460;39.612;8.822;2022-07-06T09:31:22;100347.72;;;34.73
66604;BMP280;53460;39.612;8.822;2022-07-06T09:33:55;100348.81;;;35.32
66604;BMP280;53460;39.612;8.822;2022-07-06T09:36:46;100339.16;;;35.31
66604;BMP280;53460;39.612;8.822;2022-07-06T09:39:25;100337.28;;;35.28
66604;BMP280;53460;39.612;8.822;2022-07-06T09:41:53;100342.00;;;35.82
66604;BMP280;53460;39.612;8.822;2022-07-06T09:44:24;100335.91;;;35.92
66604;BMP280;53460;39.612;8.822;2022-07-06T09:46:51;100346.66;;;35.60
66604;BMP280;53460;39.612;8.822;2022-07-06T09:49:18;100341.19;;;36.21
66604;BMP280;53460;39.612;8.822;2022-07-06T09:51:45;100330.19;;;36.19
66604;BMP280;53460;39.612;8.822;2022-07-06T09:54:12;100327.03;;;36.38
66604;BMP280;53460;39.612;8.822;2022-07-06T09:56:38;100325.31;;;36.07
66604;BMP280;53460;39.612;8.822;2022-07-06T09:59:08;100310.44;;;36.00
66604;BMP280;53460;39.612;8.822;2022-07-06T10:01:35;100304.50;;;36.55
66604;BMP280;53460;39.612;8.822;2022-07-06T10:04:01;100308.00;;;36.66
66604;BMP280;53460;39.612;8.822;2022-07-06T10:06:27;100307.50;;;36.87
66604;BMP280;53460;39.612;8.822;2022-07-06T10:08:55;100299.78;;;36.87
66604;BMP280;53460;39.612;8.822;2022-07-06T10:11:24;100303.25;;;36.64
66604;BMP280;53460;39.612;8.822;2022-07-06T10:13:54;100293.88;;;36.70
66604;BMP280;53460;39.612;8.822;2022-07-06T10:16:25;100295.63;;;36.52
66604;BMP280;53460;39.612;8.822;2022-07-06T10:18:51;100299.00;;;37.22
66604;BMP280;53460;39.612;8.822;2022-07-06T10:21:23;100302.34;;;36.91
66604;BMP280;53460;39.612;8.822;2022-07-06T10:23:50;100294.84;;;37.00
66604;BMP280;53460;39.612;8.822;2022-07-06T10:26:17;100294.16;;;37.00
66604;BMP280;53460;39.612;8.822;2022-07-06T10:28:44;100302.19;;;37.16
66604;BMP280;53460;39.612;8.822;2022-07-06T10:31:14;100300.34;;;36.90
66604;BMP280;53460;39.612;8.822;2022-07-06T10:33:42;100307.50;;;37.20
66604;BMP280;53460;39.612;8.822;2022-07-06T10:36:09;100308.66;;;37.57
66604;BMP280;53460;39.612;8.822;2022-07-06T10:38:35;100305.22;;;37.12
66604;BMP280;53460;39.612;8.822;2022-07-06T10:41:05;100311.25;;;38.04
66604;BMP280;53460;39.612;8.822;2022-07-06T10:43:32;100307.94;;;38.01
66604;BMP280;53460;39.612;8.822;2022-07-06T10:45:59;100304.97;;;37.82
66604;BMP280;53460;39.612;8.822;2022-07-06T10:48:41;100314.53;;;37.96
66604;BMP280;53460;39.612;8.822;2022-07-06T10:51:08;100304.34;;;37.92
66604;BMP280;53460;39.612;8.822;2022-07-06T10:53:35;100316.53;;;38.18
66604;BMP280;53460;39.612;8.822;2022-07-06T10:56:10;100303.53;;;38.04
66604;BMP280;53460;39.612;8.822;2022-07-06T11:01:03;100306.19;;;38.06
66604;BMP280;53460;39.612;8.822;2022-07-06T11:03:37;100314.56;;;38.27
66604;BMP280;53460;39.612;8.822;2022-07-06T11:06:19;100308.72;;;38.00
66604;BMP280;53460;39.612;8.822;2022-07-06T11:08:59;100294.22;;;38.80
66604;BMP280;53460;39.612;8.822;2022-07-06T11:14:06;100295.59;;;38.70
66604;BMP280;53460;39.612;8.822;2022-07-06T11:16:59;100304.81;;;38.88
66604;BMP280;53460;39.612;8.822;2022-07-06T11:19:29;100304.94;;;38.56
66604;BMP280;53460;39.612;8.822;2022-07-06T11:22:06;100304.84;;;38.26
66604;BMP280;53460;39.612;8.822;2022-07-06T11:24:33;100303.13;;;38.31
66604;BMP280;53460;39.612;8.822;2022-07-06T11:27:00;100311.88;;;37.62
66604;BMP280;53460;39.612;8.822;2022-07-06T11:29:27;100304.13;;;38.58
66604;BMP280;53460;39.612;8.822;2022-07-06T11:31:55;100297.41;;;38.02
66604;BMP280;53460;39.612;8.822;2022-07-06T11:34:23;100291.97;;;38.42
66604;BMP280;53460;39.612;8.822;2022-07-06T11:36:55;100285.94;;;38.59
66604;BMP280;53460;39.612;8.822;2022-07-06T11:39:22;100278.16;;;38.29
66604;BMP280;53460;39.612;8.822;2022-07-06T11:41:47;100284.69;;;38.77
66604;BMP280;53460;39.612;8.822;2022-07-06T11:44:13;100282.25;;;38.81
66604;BMP280;53460;39.612;8.822;2022-07-06T11:46:39;100282.69;;;39.05
66604;BMP280;53460;39.612;8.822;2022-07-06T11:49:06;100284.06;;;38.96
66604;BMP280;53460;39.612;8.822;2022-07-06T11:51:34;100271.81;;;38.71
66604;BMP280;53460;39.612;8.822;2022-07-06T11:54:02;100259.75;;;38.64
66604;BMP280;53460;39.612;8.822;2022-07-06T11:56:31;100252.84;;;38.93
66604;BMP280;53460;39.612;8.822;2022-07-06T11:58:58;100246.19;;;39.37
66604;BMP280;53460;39.612;8.822;2022-07-06T12:01:26;100239.34;;;39.45
66604;BMP280;53460;39.612;8.822;2022-07-06T12:03:57;100251.06;;;39.28
66604;BMP280;53460;39.612;8.822;2022-07-06T12:06:25;100254.13;;;39.43
66604;BMP280;53460;39.612;8.822;2022-07-06T12:08:52;100244.84;;;39.55
66604;BMP280;53460;39.612;8.822;2022-07-06T12:11:22;100242.69;;;39.75
66604;BMP280;53460;39.612;8.822;2022-07-06T12:13:50;100233.22;;;39.61
66604;BMP280;53460;39.612;8.822;2022-07-06T12:16:17;100234.94;;;39.95
66604;BMP280;53460;39.612;8.822;2022-07-06T12:18:45;100221.09;;;39.65
66604;BMP280;53460;39.612;8.822;2022-07-06T12:21:14;100214.63;;;39.58
66604;BMP280;53460;39.612;8.822;2022-07-06T12:23:47;100219.00;;;39.08
66604;BMP280;53460;39.612;8.822;2022-07-06T12:26:14;100210.09;;;39.24
66604;BMP280;53460;39.612;8.822;2022-07-06T12:28:41;100203.44;;;39.11
66604;BMP280;53460;39.612;8.822;2022-07-06T12:31:08;100193.50;;;39.03
66604;BMP280;53460;39.612;8.822;2022-07-06T12:33:34;100186.28;;;39.25
66604;BMP280;53460;39.612;8.822;2022-07-06T12:36:11;100191.69;;;39.74
66604;BMP280;53460;39.612;8.822;2022-07-06T12:38:47;100183.84;;;39.77
66604;BMP280;53460;39.612;8.822;2022-07-06T12:41:49;100181.09;;;38.62
66604;BMP280;53460;39.612;8.822;2022-07-06T12:44:18;100169.22;;;38.72
66604;BMP280;53460;39.612;8.822;2022-07-06T12:46:44;100167.47;;;39.62
66604;BMP280;53460;39.612;8.822;2022-07-06T12:51:50;100159.78;;;39.44
66604;BMP280;53460;39.612;8.822;2022-07-06T12:54:17;100156.44;;;39.88
66604;BMP280;53460;39.612;8.822;2022-07-06T12:57:02;100149.22;;;39.36
66604;BMP280;53460;39.612;8.822;2022-07-06T12:59:30;100146.16;;;39.67
66604;BMP280;53460;39.612;8.822;2022-07-06T13:01:56;100131.53;;;39.20
66604;BMP280;53460;39.612;8.822;2022-07-06T13:04:28;100128.09;;;39.19
66604;BMP280;53460;39.612;8.822;2022-07-06T13:06:55;100106.34;;;39.67
66604;BMP280;53460;39.612;8.822;2022-07-06T13:09:22;100098.31;;;39.44
66604;BMP280;53460;39.612;8.822;2022-07-06T13:11:48;100089.88;;;38.69
66604;BMP280;53460;39.612;8.822;2022-07-06T13:14:17;100090.19;;;39.03
66604;BMP280;53460;39.612;8.822;2022-07-06T13:16:45;100095.88;;;39.48
66604;BMP280;53460;39.612;8.822;2022-07-06T13:19:11;100094.34;;;39.68
66604;BMP280;53460;39.612;8.822;2022-07-06T13:21:37;100097.75;;;39.24
66604;BMP280;53460;39.612;8.822;2022-07-06T13:24:04;100094.84;;;39.35
66604;BMP280;53460;39.612;8.822;2022-07-06T13:26:31;100091.22;;;39.08
66604;BMP280;53460;39.612;8.822;2022-07-06T13:29:03;100091.66;;;39.21
66604;BMP280;53460;39.612;8.822;2022-07-06T13:31:30;100092.03;;;38.88
66604;BMP280;53460;39.612;8.822;2022-07-06T13:33:56;100078.91;;;38.86
66604;BMP280;53460;39.612;8.822;2022-07-06T13:36:25;100090.44;;;38.91
66604;BMP280;53460;39.612;8.822;2022-07-06T13:38:51;100095.63;;;39.05
66604;BMP280;53460;39.612;8.822;2022-07-06T13:41:16;100097.22;;;39.21
66604;BMP280;53460;39.612;8.822;2022-07-06T13:43:42;100091.28;;;38.98
66604;BMP280;53460;39.612;8.822;2022-07-06T13:46:08;100098.59;;;38.84
66604;BMP280;53460;39.612;8.822;2022-07-06T13:48:36;100098.00;;;38.73
66604;BMP280;53460;39.612;8.822;2022-07-06T13:51:02;100086.81;;;38.92
66604;BMP280;53460;39.612;8.822;2022-07-06T13:53:28;100081.84;;;38.65
66604;BMP280;53460;39.612;8.822;2022-07-06T13:55:54;100082.28;;;38.97
66604;BMP280;53460;39.612;8.822;2022-07-06T13:58:20;100079.75;;;39.12
66604;BMP280;53460;39.612;8.822;2022-07-06T14:00:46;100087.53;;;39.01
66604;BMP280;53460;39.612;8.822;2022-07-06T14:03:11;100081.47;;;38.79
66604;BMP280;53460;39.612;8.822;2022-07-06T14:05:37;100080.66;;;38.62
66604;BMP280;53460;39.612;8.822;2022-07-06T14:08:06;100076.47;;;38.71
66604;BMP280;53460;39.612;8.822;2022-07-06T14:10:32;100065.59;;;38.67
66604;BMP280;53460;39.612;8.822;2022-07-06T14:12:57;100071.41;;;38.74
66604;BMP280;53460;39.612;8.822;2022-07-06T14:15:23;100074.63;;;38.87
66604;BMP280;53460;39.612;8.822;2022-07-06T14:17:49;100073.69;;;38.91
66604;BMP280;53460;39.612;8.822;2022-07-06T14:20:15;100067.88;;;38.65
66604;BMP280;53460;39.612;8.822;2022-07-06T14:22:41;100069.28;;;38.55
66604;BMP280;53460;39.612;8.822;2022-07-06T14:25:07;100068.31;;;38.59
66604;BMP280;53460;39.612;8.822;2022-07-06T14:27:34;100063.97;;;38.51
66604;BMP280;53460;39.612;8.822;2022-07-06T14:30:01;100062.88;;;38.38
66604;BMP280;53460;39.612;8.822;2022-07-06T14:32:26;100064.47;;;38.35
66604;BMP280;53460;39.612;8.822;2022-07-06T14:34:52;100075.91;;;38.30
66604;BMP280;53460;39.612;8.822;2022-07-06T14:37:18;100082.97;;;37.89
66604;BMP280;53460;39.612;8.822;2022-07-06T14:39:44;100082.00;;;37.63